sensor_id;sensor_type;location;lat;lon;timestamp;P1;durP1;ratioP1;P2;durP2;ratioP2
17564;SDS011;62994;52.126;5.596;2023-08-24T00:02:28;5.47;;;3.67;;
17564;SDS011;62994;52.126;5.596;2023-08-24T00:05:00;4.97;;;3.67;;
17564;SDS011;62994;52.126;5.596;2023-08-24T00:07:41;3.42;;;3.22;;
17564;SDS011;62994;52.126;5.596;2023-08-24T00:10:15;3.47;;;3.17;;
17564;SDS011;62994;52.126;5.596;2023-08-24T00:12:44;3.42;;;3.22;;
17564;SDS011;62994;52.126;5.596;2023-08-24T00:15:20;4.97;;;3.10;;
17564;SDS011;62994;52.126;5.596;2023-08-24T00:18:08;3.67;;;3.38;;
17564;SDS011;62994;52.126;5.596;2023-08-24T00:20:38;5.25;;;3.13;;
17564;SDS011;62994;52.126;5.596;2023-08-24T00:23:12;3.60;;;3.40;;
17564;SDS011;62994;52.126;5.596;2023-08-24T00:25:46;3.90;;;3.42;;
17564;SDS011;62994;52.126;5.596;2023-08-24T00:28:16;2.90;;;2.80;;
17564;SDS011;62994;52.126;5.596;2023-08-24T00:30:48;4.68;;;3.30;;
17564;SDS011;62994;52.126;5.596;2023-08-24T00:33:17;7.40;;;2.97;;
17564;SDS011;62994;52.126;5.596;2023-08-24T00:35:49;3.83;;;3.53;;
17564;SDS011;62994;52.126;5.596;2023-08-24T00:38:20;3.30;;;3.10;;
17564;SDS011;62994;52.126;5.596;2023-08-24T00:40:50;4.45;;;3.17;;
17564;SDS011;62994;52.126;5.596;2023-08-24T00:43:18;4.45;;;3.15;;
17564;SDS011;62994;52.126;5.596;2023-08-24T00:45:56;3.55;;;3.00;;
17564;SDS011;62994;52.126;5.596;2023-08-24T00:48:29;3.40;;;3.10;;
17564;SDS011;62994;52.126;5.596;2023-08-24T00:51:00;3.85;;;3.55;;
17564;SDS011;62994;52.126;5.596;2023-08-24T00:53:32;4.85;;;3.78;;
17564;SDS011;62994;52.126;5.596;2023-08-24T00:56:03;4.35;;;3.50;;
17564;SDS011;62994;52.126;5.596;2023-08-24T00:58:32;4.32;;;3.63;;
17564;SDS011;62994;52.126;5.596;2023-08-24T01:01:00;3.75;;;3.45;;
17564;SDS011;62994;52.126;5.596;2023-08-24T01:04:01;3.70;;;3.40;;
17564;SDS011;62994;52.126;5.596;2023-08-24T01:06:32;5.38;;;3.30;;
17564;SDS011;62994;52.126;5.596;2023-08-24T01:09:09;4.07;;;3.40;;
17564;SDS011;62994;52.126;5.596;2023-08-24T01:11:45;3.30;;;3.10;;
17564;SDS011;62994;52.126;5.596;2023-08-24T01:14:23;4.95;;;3.15;;
17564;SDS011;62994;52.126;5.596;2023-08-24T01:17:03;4.18;;;3.88;;
17564;SDS011;62994;52.126;5.596;2023-08-24T01:19:47;4.03;;;3.63;;
17564;SDS011;62994;52.126;5.596;2023-08-24T01:22:44;5.07;;;3.33;;
17564;SDS011;62994;52.126;5.596;2023-08-24T01:25:20;3.83;;;3.63;;
17564;SDS011;62994;52.126;5.596;2023-08-24T01:28:02;7.95;;;3.55;;
17564;SDS011;62994;52.126;5.596;2023-08-24T01:30:36;6.15;;;3.90;;
17564;SDS011;62994;52.126;5.596;2023-08-24T01:33:13;4.00;;;3.80;;
17564;SDS011;62994;52.126;5.596;2023-08-24T01:35:51;3.90;;;3.60;;
17564;SDS011;62994;52.126;5.596;2023-08-24T01:38:21;5.43;;;3.97;;
17564;SDS011;62994;52.126;5.596;2023-08-24T01:41:00;4.32;;;4.00;;
17564;SDS011;62994;52.126;5.596;2023-08-24T01:43:44;3.85;;;3.55;;
17564;SDS011;62994;52.126;5.596;2023-08-24T01:46:17;3.75;;;3.45;;
17564;SDS011;62994;52.126;5.596;2023-08-24T01:48:52;5.35;;;4.05;;
17564;SDS011;62994;52.126;5.596;2023-08-24T01:51:26;3.80;;;3.60;;
17564;SDS011;62994;52.126;5.596;2023-08-24T01:53:59;6.00;;;3.72;;
17564;SDS011;62994;52.126;5.596;2023-08-24T01:56:30;3.50;;;3.28;;
17564;SDS011;62994;52.126;5.596;2023-08-24T01:59:01;3.72;;;3.53;;
17564;SDS011;62994;52.126;5.596;2023-08-24T02:01:31;5.68;;;3.90;;
17564;SDS011;62994;52.126;5.596;2023-08-24T02:03:59;3.75;;;3.55;;
17564;SDS011;62994;52.126;5.596;2023-08-24T02:06:31;4.07;;;3.78;;
17564;SDS011;62994;52.126;5.596;2023-08-24T02:09:04;4.35;;;3.90;;
17564;SDS011;62994;52.126;5.596;2023-08-24T02:11:34;3.58;;;3.30;;
17564;SDS011;62994;52.126;5.596;2023-08-24T02:14:17;6.00;;;4.18;;
17564;SDS011;62994;52.126;5.596;2023-08-24T02:17:00;6.82;;;4.50;;
17564;SDS011;62994;52.126;5.596;2023-08-24T02:19:44;7.20;;;3.90;;
17564;SDS011;62994;52.126;5.596;2023-08-24T02:22:17;5.05;;;4.28;;
17564;SDS011;62994;52.126;5.596;2023-08-24T02:24:45;3.88;;;3.67;;
17564;SDS011;62994;52.126;5.596;2023-08-24T02:27:21;4.70;;;4.32;;
17564;SDS011;62994;52.126;5.596;2023-08-24T02:29:52;5.05;;;4.28;;
17564;SDS011;62994;52.126;5.596;2023-08-24T02:32:24;5.93;;;4.30;;
17564;SDS011;62994;52.126;5.596;2023-08-24T02:35:09;5.13;;;4.72;;
17564;SDS011;62994;52.126;5.596;2023-08-24T02:37:55;5.90;;;4.32;;
17564;SDS011;62994;52.126;5.596;2023-08-24T02:40:25;5.20;;;4.50;;
17564;SDS011;62994;52.126;5.596;2023-08-24T02:43:05;5.10;;;4.55;;
17564;SDS011;62994;52.126;5.596;2023-08-24T02:45:52;5.85;;;5.30;;
17564;SDS011;62994;52.126;5.596;2023-08-24T02:51:28;8.45;;;5.20;;
17564;SDS011;62994;52.126;5.596;2023-08-24T02:54:23;6.03;;;5.63;;
17564;SDS011;62994;52.126;5.596;2023-08-24T02:56:58;7.00;;;6.43;;
17564;SDS011;62994;52.126;5.596;2023-08-24T02:59:27;7.68;;;7.03;;
17564;SDS011;62994;52.126;5.596;2023-08-24T03:02:12;6.57;;;5.90;;
17564;SDS011;62994;52.126;5.596;2023-08-24T03:04:55;7.28;;;6.63;;
17564;SDS011;62994;52.126;5.596;2023-08-24T03:07:27;8.07;;;7.13;;
17564;SDS011;62994;52.126;5.596;2023-08-24T03:10:12;7.00;;;6.40;;
17564;SDS011;62994;52.126;5.596;2023-08-24T03:16:34;6.20;;;5.78;;
17564;SDS011;62994;52.126;5.596;2023-08-24T03:20:16;9.35;;;6.47;;
17564;SDS011;62994;52.126;5.596;2023-08-24T03:22:46;6.43;;;5.93;;
17564;SDS011;62994;52.126;5.596;2023-08-24T03:25:20;10.82;;;6.47;;
17564;SDS011;62994;52.126;5.596;2023-08-24T03:28:27;6.70;;;6.30;;
17564;SDS011;62994;52.126;5.596;2023-08-24T03:30:59;6.28;;;5.78;;
17564;SDS011;62994;52.126;5.596;2023-08-24T03:33:35;7.05;;;6.55;;
17564;SDS011;62994;52.126;5.596;2023-08-24T03:36:26;6.32;;;5.75;;
17564;SDS011;62994;52.126;5.596;2023-08-24T03:39:13;5.93;;;5.57;;
17564;SDS011;62994;52.126;5.596;2023-08-24T03:42:22;6.70;;;6.20;;
17564;SDS011;62994;52.126;5.596;2023-08-24T03:44:55;7.65;;;5.93;;
17564;SDS011;62994;52.126;5.596;2023-08-24T03:50:22;5.43;;;5.05;;
17564;SDS011;62994;52.126;5.596;2023-08-24T03:52:59;6.18;;;5.78;;
17564;SDS011;62994;52.126;5.596;2023-08-24T03:56:19;6.70;;;5.55;;
17564;SDS011;62994;52.126;5.596;2023-08-24T03:58:48;6.03;;;5.72;;
17564;SDS011;62994;52.126;5.596;2023-08-24T04:01:27;5.55;;;5.25;;
17564;SDS011;62994;52.126;5.596;2023-08-24T04:04:08;6.20;;;5.70;;
17564;SDS011;62994;52.126;5.596;2023-08-24T04:06:38;6.22;;;5.78;;
17564;SDS011;62994;52.126;5.596;2023-08-24T04:09:07;6.80;;;6.30;;
17564;SDS011;62994;52.126;5.596;2023-08-24T04:11:36;7.35;;;6.15;;
17564;SDS011;62994;52.126;5.596;2023-08-24T04:14:07;10.90;;;6.13;;
17564;SDS011;62994;52.126;5.596;2023-08-24T04:16:39;7.07;;;6.50;;
17564;SDS011;62994;52.126;5.596;2023-08-24T04:19:09;5.18;;;4.97;;
17564;SDS011;62994;52.126;5.596;2023-08-24T04:21:41;6.78;;;6.28;;
17564;SDS011;62994;52.126;5.596;2023-08-24T04:24:15;6.38;;;5.90;;
17564;SDS011;62994;52.126;5.596;2023-08-24T04:26:46;6.78;;;6.18;;
17564;SDS011;62994;52.126;5.596;2023-08-24T04:29:24;5.95;;;5.50;;
17564;SDS011;62994;52.126;5.596;2023-08-24T04:32:07;6.65;;;5.70;;
17564;SDS011;62994;52.126;5.596;2023-08-24T04:34:40;6.10;;;5.55;;
17564;SDS011;62994;52.126;5.596;2023-08-24T04:37:30;6.03;;;5.53;;
17564;SDS011;62994;52.126;5.596;2023-08-24T04:40:35;4.75;;;4.55;;
17564;SDS011;62994;52.126;5.596;2023-08-24T04:43:15;5.85;;;5.38;;
17564;SDS011;62994;52.126;5.596;2023-08-24T04:45:53;5.72;;;5.25;;
17564;SDS011;62994;52.126;5.596;2023-08-24T04:48:24;6.05;;;5.55;;
17564;SDS011;62994;52.126;5.596;2023-08-24T04:50:57;5.45;;;4.95;;
17564;SDS011;62994;52.126;5.596;2023-08-24T04:53:25;5.60;;;5.30;;
17564;SDS011;62994;52.126;5.596;2023-08-24T04:55:59;5.93;;;5.63;;
17564;SDS011;62994;52.126;5.596;2023-08-24T04:58:32;6.05;;;5.47;;
17564;SDS011;62994;52.126;5.596;2023-08-24T05:04:13;6.35;;;5.55;;
17564;SDS011;62994;52.126;5.596;2023-08-24T05:06:50;5.80;;;5.28;;
17564;SDS011;62994;52.126;5.596;2023-08-24T05:09:21;6.45;;;5.18;;
17564;SDS011;62994;52.126;5.596;2023-08-24T05:12:03;5.57;;;5.20;;
17564;SDS011;62994;52.126;5.596;2023-08-24T05:14:40;5.68;;;5.25;;
17564;SDS011;62994;52.126;5.596;2023-08-24T05:17:15;5.53;;;4.80;;
17564;SDS011;62994;52.126;5.596;2023-08-24T05:19:49;6.30;;;5.57;;
17564;SDS011;62994;52.126;5.596;2023-08-24T05:22:22;6.38;;;5.78;;
17564;SDS011;62994;52.126;5.596;2023-08-24T05:25:00;6.15;;;5.53;;
17564;SDS011;62994;52.126;5.596;2023-08-24T05:27:47;7.47;;;6.25;;
17564;SDS011;62994;52.126;5.596;2023-08-24T05:30:39;6.78;;;5.97;;
17564;SDS011;62994;52.126;5.596;2023-08-24T05:34:32;8.90;;;6.50;;
17564;SDS011;62994;52.126;5.596;2023-08-24T05:39:39;11.10;;;6.90;;
17564;SDS011;62994;52.126;5.596;2023-08-24T05:42:22;8.77;;;6.18;;
17564;SDS011;62994;52.126;5.596;2023-08-24T05:45:19;6.70;;;6.20;;
17564;SDS011;62994;52.126;5.596;2023-08-24T05:47:54;11.88;;;6.25;;
17564;SDS011;62994;52.126;5.596;2023-08-24T05:50:30;8.32;;;7.53;;
17564;SDS011;62994;52.126;5.596;2023-08-24T05:53:02;6.57;;;6.18;;
17564;SDS011;62994;52.126;5.596;2023-08-24T05:58:55;7.90;;;6.07;;
17564;SDS011;62994;52.126;5.596;2023-08-24T06:01:28;7.30;;;6.80;;
17564;SDS011;62994;52.126;5.596;2023-08-24T06:04:04;8.10;;;7.40;;
17564;SDS011;62994;52.126;5.596;2023-08-24T06:06:56;9.15;;;7.35;;
17564;SDS011;62994;52.126;5.596;2023-08-24T06:09:57;6.97;;;6.53;;
17564;SDS011;62994;52.126;5.596;2023-08-24T06:12:32;7.93;;;7.28;;
17564;SDS011;62994;52.126;5.596;2023-08-24T06:15:37;8.93;;;7.88;;
17564;SDS011;62994;52.126;5.596;2023-08-24T06:21:24;7.20;;;6.65;;
17564;SDS011;62994;52.126;5.596;2023-08-24T06:24:01;8.68;;;7.80;;
17564;SDS011;62994;52.126;5.596;2023-08-24T06:26:53;8.73;;;7.97;;
17564;SDS011;62994;52.126;5.596;2023-08-24T06:29:42;8.10;;;7.60;;
17564;SDS011;62994;52.126;5.596;2023-08-24T06:32:26;9.82;;;8.57;;
17564;SDS011;62994;52.126;5.596;2023-08-24T06:35:13;9.40;;;8.50;;
17564;SDS011;62994;52.126;5.596;2023-08-24T06:38:05;8.82;;;8.02;;
17564;SDS011;62994;52.126;5.596;2023-08-24T06:40:54;9.20;;;8.07;;
17564;SDS011;62994;52.126;5.596;2023-08-24T06:43:47;9.02;;;8.23;;
17564;SDS011;62994;52.126;5.596;2023-08-24T06:46:30;23.48;;;21.10;;
17564;SDS011;62994;52.126;5.596;2023-08-24T06:49:24;43.05;;;36.40;;
17564;SDS011;62994;52.126;5.596;2023-08-24T06:52:25;65.50;;;55.67;;
17564;SDS011;62994;52.126;5.596;2023-08-24T06:55:16;54.47;;;46.50;;
17564;SDS011;62994;52.126;5.596;2023-08-24T06:58:11;33.85;;;28.83;;
17564;SDS011;62994;52.126;5.596;2023-08-24T07:01:25;22.02;;;16.60;;
17564;SDS011;62994;52.126;5.596;2023-08-24T07:03:45;12.88;;;11.73;;
17564;SDS011;62994;52.126;5.596;2023-08-24T07:06:28;11.70;;;10.70;;
17564;SDS011;62994;52.126;5.596;2023-08-24T07:09:04;9.75;;;9.15;;
17564;SDS011;62994;52.126;5.596;2023-08-24T07:11:48;13.25;;;10.35;;
17564;SDS011;62994;52.126;5.596;2023-08-24T07:14:22;11.07;;;10.10;;
17564;SDS011;62994;52.126;5.596;2023-08-24T07:16:53;9.98;;;9.30;;
17564;SDS011;62994;52.126;5.596;2023-08-24T07:19:30;9.30;;;8.70;;
17564;SDS011;62994;52.126;5.596;2023-08-24T07:22:05;10.85;;;10.15;;
17564;SDS011;62994;52.126;5.596;2023-08-24T07:27:30;9.85;;;9.05;;
17564;SDS011;62994;52.126;5.596;2023-08-24T07:30:02;11.13;;;10.18;;
17564;SDS011;62994;52.126;5.596;2023-08-24T07:32:31;9.20;;;8.60;;
17564;SDS011;62994;52.126;5.596;2023-08-24T07:35:06;9.20;;;8.50;;
17564;SDS011;62994;52.126;5.596;2023-08-24T07:37:49;9.30;;;8.73;;
17564;SDS011;62994;52.126;5.596;2023-08-24T07:40:32;8.27;;;7.78;;
17564;SDS011;62994;52.126;5.596;2023-08-24T07:43:04;9.57;;;8.98;;
17564;SDS011;62994;52.126;5.596;2023-08-24T07:45:36;9.95;;;9.15;;
17564;SDS011;62994;52.126;5.596;2023-08-24T07:48:06;11.80;;;10.90;;
17564;SDS011;62994;52.126;5.596;2023-08-24T07:50:33;10.85;;;10.10;;
17564;SDS011;62994;52.126;5.596;2023-08-24T07:53:03;8.82;;;8.20;;
17564;SDS011;62994;52.126;5.596;2023-08-24T07:55:32;8.85;;;8.23;;
17564;SDS011;62994;52.126;5.596;2023-08-24T07:58:15;8.93;;;8.20;;
17564;SDS011;62994;52.126;5.596;2023-08-24T08:00:51;8.05;;;7.65;;
17564;SDS011;62994;52.126;5.596;2023-08-24T08:03:21;8.32;;;7.72;;
17564;SDS011;62994;52.126;5.596;2023-08-24T08:06:05;8.50;;;7.70;;
17564;SDS011;62994;52.126;5.596;2023-08-24T08:08:55;7.82;;;7.13;;
17564;SDS011;62994;52.126;5.596;2023-08-24T08:11:27;8.27;;;7.57;;
17564;SDS011;62994;52.126;5.596;2023-08-24T08:14:04;7.80;;;7.30;;
17564;SDS011;62994;52.126;5.596;2023-08-24T08:16:40;7.70;;;7.00;;
17564;SDS011;62994;52.126;5.596;2023-08-24T08:19:20;7.85;;;7.22;;
17564;SDS011;62994;52.126;5.596;2023-08-24T08:22:18;8.07;;;6.70;;
17564;SDS011;62994;52.126;5.596;2023-08-24T08:25:06;7.13;;;6.63;;
17564;SDS011;62994;52.126;5.596;2023-08-24T08:27:35;6.22;;;5.20;;
17564;SDS011;62994;52.126;5.596;2023-08-24T08:30:15;5.95;;;5.55;;
17564;SDS011;62994;52.126;5.596;2023-08-24T08:32:49;6.07;;;5.53;;
17564;SDS011;62994;52.126;5.596;2023-08-24T08:35:21;5.72;;;5.20;;
17564;SDS011;62994;52.126;5.596;2023-08-24T08:37:50;6.32;;;5.03;;
17564;SDS011;62994;52.126;5.596;2023-08-24T08:40:31;4.95;;;4.43;;
17564;SDS011;62994;52.126;5.596;2023-08-24T08:43:14;5.45;;;5.10;;
17564;SDS011;62994;52.126;5.596;2023-08-24T08:46:03;4.78;;;4.32;;
17564;SDS011;62994;52.126;5.596;2023-08-24T08:48:32;5.47;;;5.10;;
17564;SDS011;62994;52.126;5.596;2023-08-24T08:51:05;5.20;;;4.75;;
17564;SDS011;62994;52.126;5.596;2023-08-24T08:53:50;5.70;;;4.88;;
17564;SDS011;62994;52.126;5.596;2023-08-24T08:56:27;4.68;;;4.40;;
17564;SDS011;62994;52.126;5.596;2023-08-24T08:59:05;5.53;;;5.10;;
17564;SDS011;62994;52.126;5.596;2023-08-24T09:01:39;5.07;;;4.68;;
17564;SDS011;62994;52.126;5.596;2023-08-24T09:04:15;4.63;;;4.28;;
17564;SDS011;62994;52.126;5.596;2023-08-24T09:07:04;5.10;;;4.70;;
17564;SDS011;62994;52.126;5.596;2023-08-24T09:09:39;4.78;;;4.47;;
17564;SDS011;62994;52.126;5.596;2023-08-24T09:12:09;5.07;;;4.78;;
17564;SDS011;62994;52.126;5.596;2023-08-24T09:14:54;5.47;;;4.97;;
17564;SDS011;62994;52.126;5.596;2023-08-24T09:17:32;5.10;;;4.70;;
17564;SDS011;62994;52.126;5.596;2023-08-24T09:20:28;4.35;;;4.05;;
17564;SDS011;62994;52.126;5.596;2023-08-24T09:22:58;4.97;;;4.68;;
17564;SDS011;62994;52.126;5.596;2023-08-24T09:25:32;5.20;;;4.72;;
17564;SDS011;62994;52.126;5.596;2023-08-24T09:28:23;7.95;;;5.32;;
17564;SDS011;62994;52.126;5.596;2023-08-24T09:31:05;5.00;;;4.60;;
17564;SDS011;62994;52.126;5.596;2023-08-24T09:33:44;7.32;;;5.13;;
17564;SDS011;62994;52.126;5.596;2023-08-24T09:36:17;6.80;;;4.45;;
17564;SDS011;62994;52.126;5.596;2023-08-24T09:39:03;6.03;;;5.50;;
17564;SDS011;62994;52.126;5.596;2023-08-24T09:41:43;5.40;;;4.72;;
17564;SDS011;62994;52.126;5.596;2023-08-24T09:44:20;4.93;;;4.53;;
17564;SDS011;62994;52.126;5.596;2023-08-24T09:46:52;4.47;;;4.00;;
17564;SDS011;62994;52.126;5.596;2023-08-24T09:49:21;5.00;;;4.68;;
17564;SDS011;62994;52.126;5.596;2023-08-24T09:51:54;4.88;;;4.53;;
17564;SDS011;62994;52.126;5.596;2023-08-24T09:54:51;4.55;;;4.25;;
17564;SDS011;62994;52.126;5.596;2023-08-24T09:57:39;4.70;;;4.40;;
17564;SDS011;62994;52.126;5.596;2023-08-24T10:00:13;7.00;;;3.90;;
17564;SDS011;62994;52.126;5.596;2023-08-24T10:02:57;4.57;;;4.18;;
17564;SDS011;62994;52.126;5.596;2023-08-24T10:06:02;5.05;;;4.65;;
17564;SDS011;62994;52.126;5.596;2023-08-24T10:08:34;4.25;;;4.00;;
17564;SDS011;62994;52.126;5.596;2023-08-24T10:11:19;4.40;;;4.00;;
17564;SDS011;62994;52.126;5.596;2023-08-24T10:13:58;3.92;;;3.72;;
17564;SDS011;62994;52.126;5.596;2023-08-24T10:16:35;4.10;;;3.90;;
17564;SDS011;62994;52.126;5.596;2023-08-24T10:19:15;4.93;;;4.40;;
17564;SDS011;62994;52.126;5.596;2023-08-24T10:22:09;4.38;;;4.10;;
17564;SDS011;62994;52.126;5.596;2023-08-24T10:24:40;4.28;;;3.80;;
17564;SDS011;62994;52.126;5.596;2023-08-24T10:27:17;4.60;;;3.35;;
17564;SDS011;62994;52.126;5.596;2023-08-24T10:30:00;3.85;;;3.25;;
17564;SDS011;62994;52.126;5.596;2023-08-24T10:32:36;3.95;;;3.53;;
17564;SDS011;62994;52.126;5.596;2023-08-24T10:35:20;4.05;;;3.75;;
17564;SDS011;62994;52.126;5.596;2023-08-24T10:37:57;3.85;;;3.53;;
17564;SDS011;62994;52.126;5.596;2023-08-24T10:40:33;9.45;;;3.90;;
17564;SDS011;62994;52.126;5.596;2023-08-24T10:43:05;4.03;;;3.22;;
17564;SDS011;62994;52.126;5.596;2023-08-24T10:45:55;3.90;;;3.60;;
17564;SDS011;62994;52.126;5.596;2023-08-24T10:48:26;4.10;;;3.80;;
17564;SDS011;62994;52.126;5.596;2023-08-24T10:53:57;4.60;;;3.83;;
17564;SDS011;62994;52.126;5.596;2023-08-24T10:56:47;4.00;;;3.80;;
17564;SDS011;62994;52.126;5.596;2023-08-24T10:59:27;5.68;;;4.53;;
17564;SDS011;62994;52.126;5.596;2023-08-24T11:02:04;5.68;;;5.38;;
17564;SDS011;62994;52.126;5.596;2023-08-24T11:04:49;5.30;;;4.80;;
17564;SDS011;62994;52.126;5.596;2023-08-24T11:08:04;4.88;;;4.47;;
17564;SDS011;62994;52.126;5.596;2023-08-24T11:10:46;6.05;;;5.75;;
17564;SDS011;62994;52.126;5.596;2023-08-24T11:13:17;5.05;;;4.65;;
17564;SDS011;62994;52.126;5.596;2023-08-24T11:15:53;7.80;;;5.15;;
17564;SDS011;62994;52.126;5.596;2023-08-24T11:18:31;9.48;;;6.15;;
17564;SDS011;62994;52.126;5.596;2023-08-24T11:21:10;6.10;;;5.47;;
17564;SDS011;62994;52.126;5.596;2023-08-24T11:27:02;6.50;;;5.90;;
17564;SDS011;62994;52.126;5.596;2023-08-24T11:29:43;6.82;;;6.20;;
17564;SDS011;62994;52.126;5.596;2023-08-24T11:32:15;6.60;;;6.00;;
17564;SDS011;62994;52.126;5.596;2023-08-24T11:34:52;7.55;;;5.93;;
17564;SDS011;62994;52.126;5.596;2023-08-24T11:37:29;6.95;;;6.55;;
17564;SDS011;62994;52.126;5.596;2023-08-24T11:40:16;7.85;;;7.25;;
17564;SDS011;62994;52.126;5.596;2023-08-24T11:42:57;7.72;;;6.95;;
17564;SDS011;62994;52.126;5.596;2023-08-24T11:45:38;7.43;;;6.97;;
17564;SDS011;62994;52.126;5.596;2023-08-24T11:48:11;7.53;;;6.80;;
17564;SDS011;62994;52.126;5.596;2023-08-24T11:50:43;8.77;;;7.97;;
17564;SDS011;62994;52.126;5.596;2023-08-24T11:53:12;8.95;;;8.25;;
17564;SDS011;62994;52.126;5.596;2023-08-24T11:55:54;7.22;;;6.72;;
17564;SDS011;62994;52.126;5.596;2023-08-24T11:58:32;8.50;;;7.82;;
17564;SDS011;62994;52.126;5.596;2023-08-24T12:01:14;9.85;;;7.82;;
17564;SDS011;62994;52.126;5.596;2023-08-24T12:03:50;8.65;;;7.95;;
17564;SDS011;62994;52.126;5.596;2023-08-24T12:06:26;8.77;;;8.10;;
17564;SDS011;62994;52.126;5.596;2023-08-24T12:08:57;9.82;;;7.50;;
17564;SDS011;62994;52.126;5.596;2023-08-24T12:11:34;8.05;;;7.35;;
17564;SDS011;62994;52.126;5.596;2023-08-24T12:16:53;7.97;;;7.30;;
17564;SDS011;62994;52.126;5.596;2023-08-24T12:19:25;7.50;;;6.78;;
17564;SDS011;62994;52.126;5.596;2023-08-24T12:21:57;8.50;;;5.53;;
17564;SDS011;62994;52.126;5.596;2023-08-24T12:24:25;9.93;;;6.78;;
17564;SDS011;62994;52.126;5.596;2023-08-24T12:26:56;7.63;;;7.20;;
17564;SDS011;62994;52.126;5.596;2023-08-24T12:29:30;7.13;;;6.28;;
17564;SDS011;62994;52.126;5.596;2023-08-24T12:31:57;7.72;;;6.75;;
17564;SDS011;62994;52.126;5.596;2023-08-24T12:34:25;6.28;;;5.97;;
17564;SDS011;62994;52.126;5.596;2023-08-24T12:36:54;8.82;;;7.20;;
17564;SDS011;62994;52.126;5.596;2023-08-24T12:39:22;7.55;;;6.88;;
17564;SDS011;62994;52.126;5.596;2023-08-24T12:41:56;7.50;;;7.07;;
17564;SDS011;62994;52.126;5.596;2023-08-24T12:44:39;8.88;;;7.32;;
17564;SDS011;62994;52.126;5.596;2023-08-24T12:47:15;11.43;;;7.75;;
17564;SDS011;62994;52.126;5.596;2023-08-24T12:50:07;9.15;;;7.95;;
17564;SDS011;62994;52.126;5.596;2023-08-24T12:52:37;8.73;;;7.90;;
17564;SDS011;62994;52.126;5.596;2023-08-24T12:55:11;7.95;;;7.45;;
17564;SDS011;62994;52.126;5.596;2023-08-24T12:57:50;8.15;;;7.57;;
17564;SDS011;62994;52.126;5.596;2023-08-24T13:00:31;8.70;;;7.85;;
17564;SDS011;62994;52.126;5.596;2023-08-24T13:02:59;8.32;;;7.60;;
17564;SDS011;62994;52.126;5.596;2023-08-24T13:05:31;9.10;;;8.35;;
17564;SDS011;62994;52.126;5.596;2023-08-24T13:08:07;11.80;;;8.18;;
17564;SDS011;62994;52.126;5.596;2023-08-24T13:10:54;8.00;;;7.25;;
17564;SDS011;62994;52.126;5.596;2023-08-24T13:13:27;8.57;;;7.85;;
17564;SDS011;62994;52.126;5.596;2023-08-24T13:16:00;12.23;;;7.50;;
17564;SDS011;62994;52.126;5.596;2023-08-24T13:18:28;8.45;;;7.53;;
17564;SDS011;62994;52.126;5.596;2023-08-24T13:20:58;10.25;;;9.45;;
17564;SDS011;62994;52.126;5.596;2023-08-24T13:23:28;8.57;;;7.72;;
17564;SDS011;62994;52.126;5.596;2023-08-24T13:25:56;7.68;;;7.13;;
17564;SDS011;62994;52.126;5.596;2023-08-24T13:28:25;8.25;;;7.63;;
17564;SDS011;62994;52.126;5.596;2023-08-24T13:31:00;8.60;;;7.60;;
17564;SDS011;62994;52.126;5.596;2023-08-24T13:33:45;9.32;;;8.27;;
17564;SDS011;62994;52.126;5.596;2023-08-24T13:36:23;7.65;;;7.20;;
17564;SDS011;62994;52.126;5.596;2023-08-24T13:39:00;7.35;;;6.75;;
17564;SDS011;62994;52.126;5.596;2023-08-24T13:41:29;7.10;;;6.45;;
17564;SDS011;62994;52.126;5.596;2023-08-24T13:43:57;7.18;;;6.60;;
17564;SDS011;62994;52.126;5.596;2023-08-24T13:46:33;6.72;;;6.22;;
17564;SDS011;62994;52.126;5.596;2023-08-24T13:49:05;7.90;;;7.30;;
17564;SDS011;62994;52.126;5.596;2023-08-24T13:51:38;7.13;;;6.53;;
17564;SDS011;62994;52.126;5.596;2023-08-24T13:54:17;6.72;;;6.22;;
17564;SDS011;62994;52.126;5.596;2023-08-24T13:56:54;9.02;;;8.15;;
17564;SDS011;62994;52.126;5.596;2023-08-24T13:59:26;7.82;;;7.22;;
17564;SDS011;62994;52.126;5.596;2023-08-24T14:01:57;8.52;;;7.68;;
17564;SDS011;62994;52.126;5.596;2023-08-24T14:04:41;16.75;;;12.13;;
17564;SDS011;62994;52.126;5.596;2023-08-24T14:07:16;13.13;;;11.85;;
17564;SDS011;62994;52.126;5.596;2023-08-24T14:09:47;13.02;;;9.27;;
17564;SDS011;62994;52.126;5.596;2023-08-24T14:12:25;7.10;;;6.70;;
17564;SDS011;62994;52.126;5.596;2023-08-24T14:15:01;9.32;;;8.75;;
17564;SDS011;62994;52.126;5.596;2023-08-24T14:17:44;11.70;;;9.00;;
17564;SDS011;62994;52.126;5.596;2023-08-24T14:20:23;12.20;;;11.05;;
17564;SDS011;62994;52.126;5.596;2023-08-24T14:22:57;8.73;;;8.23;;
17564;SDS011;62994;52.126;5.596;2023-08-24T14:25:27;12.80;;;11.10;;
17564;SDS011;62994;52.126;5.596;2023-08-24T14:27:57;11.55;;;10.13;;
17564;SDS011;62994;52.126;5.596;2023-08-24T14:30:33;13.13;;;9.80;;
17564;SDS011;62994;52.126;5.596;2023-08-24T14:33:02;17.48;;;10.32;;
17564;SDS011;62994;52.126;5.596;2023-08-24T14:35:35;13.00;;;11.85;;
17564;SDS011;62994;52.126;5.596;2023-08-24T14:38:04;10.07;;;9.27;;
17564;SDS011;62994;52.126;5.596;2023-08-24T14:40:47;10.73;;;10.02;;
17564;SDS011;62994;52.126;5.596;2023-08-24T14:43:28;12.93;;;10.38;;
17564;SDS011;62994;52.126;5.596;2023-08-24T14:46:00;13.13;;;11.77;;
17564;SDS011;62994;52.126;5.596;2023-08-24T14:48:42;10.90;;;10.15;;
17564;SDS011;62994;52.126;5.596;2023-08-24T14:51:15;12.80;;;11.52;;
17564;SDS011;62994;52.126;5.596;2023-08-24T14:53:56;13.27;;;10.55;;
17564;SDS011;62994;52.126;5.596;2023-08-24T14:56:25;11.45;;;10.50;;
17564;SDS011;62994;52.126;5.596;2023-08-24T14:58:55;8.65;;;8.13;;
17564;SDS011;62994;52.126;5.596;2023-08-24T15:01:27;11.18;;;10.20;;
17564;SDS011;62994;52.126;5.596;2023-08-24T15:04:01;11.00;;;10.20;;
17564;SDS011;62994;52.126;5.596;2023-08-24T15:06:30;9.57;;;8.75;;
17564;SDS011;62994;52.126;5.596;2023-08-24T15:08:58;8.02;;;7.20;;
17564;SDS011;62994;52.126;5.596;2023-08-24T15:11:34;8.02;;;7.32;;
17564;SDS011;62994;52.126;5.596;2023-08-24T15:14:19;8.95;;;8.30;;
17564;SDS011;62994;52.126;5.596;2023-08-24T15:16:54;7.05;;;6.45;;
17564;SDS011;62994;52.126;5.596;2023-08-24T15:19:38;6.38;;;5.88;;
17564;SDS011;62994;52.126;5.596;2023-08-24T15:22:07;12.70;;;11.60;;
17564;SDS011;62994;52.126;5.596;2023-08-24T15:24:43;9.95;;;8.98;;
17564;SDS011;62994;52.126;5.596;2023-08-24T15:27:31;11.48;;;7.28;;
17564;SDS011;62994;52.126;5.596;2023-08-24T15:29:59;7.95;;;7.20;;
17564;SDS011;62994;52.126;5.596;2023-08-24T15:32:31;8.07;;;7.38;;
17564;SDS011;62994;52.126;5.596;2023-08-24T15:35:04;9.02;;;8.10;;
17564;SDS011;62994;52.126;5.596;2023-08-24T15:37:32;9.07;;;8.32;;
17564;SDS011;62994;52.126;5.596;2023-08-24T15:40:07;9.05;;;8.15;;
17564;SDS011;62994;52.126;5.596;2023-08-24T15:42:56;7.70;;;6.93;;
17564;SDS011;62994;52.126;5.596;2023-08-24T15:45:29;7.82;;;7.03;;
17564;SDS011;62994;52.126;5.596;2023-08-24T15:48:00;7.95;;;7.22;;
17564;SDS011;62994;52.126;5.596;2023-08-24T15:50:32;6.20;;;5.80;;
17564;SDS011;62994;52.126;5.596;2023-08-24T15:53:09;7.13;;;6.10;;
17564;SDS011;62994;52.126;5.596;2023-08-24T15:55:56;5.60;;;4.85;;
17564;SDS011;62994;52.126;5.596;2023-08-24T16:01:12;6.22;;;5.43;;
17564;SDS011;62994;52.126;5.596;2023-08-24T16:06:29;5.22;;;4.72;;
17564;SDS011;62994;52.126;5.596;2023-08-24T16:09:06;4.43;;;4.10;;
17564;SDS011;62994;52.126;5.596;2023-08-24T16:11:34;8.38;;;7.50;;
17564;SDS011;62994;52.126;5.596;2023-08-24T16:14:08;5.78;;;5.30;;
17564;SDS011;62994;52.126;5.596;2023-08-24T16:16:47;5.20;;;4.80;;
17564;SDS011;62994;52.126;5.596;2023-08-24T16:19:38;5.82;;;4.90;;
17564;SDS011;62994;52.126;5.596;2023-08-24T16:22:10;6.97;;;4.82;;
17564;SDS011;62994;52.126;5.596;2023-08-24T16:37:36;4.18;;;3.88;;
17564;SDS011;62994;52.126;5.596;2023-08-24T16:40:10;4.50;;;4.07;;
17564;SDS011;62994;52.126;5.596;2023-08-24T16:50:00;6.25;;;3.15;;